Corinth Corners, Vermont
Current Conditions -  °F | °C
As of 10:51 PM on Saturday 22 Nov 2014 (Local Time) from KMPV Reporting Station
Overcast Overcast  
Wind Chill: 36°   Ceiling: 2300
Heat Index: 41°   Visibility: 10mi
Dew Point: 33°   Wind: 7mph
Humidity: 73%   Direction: NA
Pressure: 29.95"   Gusts: 21mph
Location:  44.0361°N, 72.2949°W
Report Text: KMPV 230351Z AUTO VRB06G18KT 10SM BKN023 OVC032 05/01 A2995 RMK AO2 SLP156 T00500006
Loading
Personal Weather Stations






























Interactive Weather Map New forecast layout! Learn more

10-Day Weather Forecast

Advertisements
Track Severe Weather on mobile